Buckingham, Canada
Current Conditions -  °F | °C
As of 4:00 PM on Thursday 23 Oct 2014 (Local Time) from CYND Reporting Station
Overcast Overcast  
Wind Chill: 57°   Ceiling: 3200
Heat Index: 57°   Visibility: 15mi
Dew Point: 43°   Wind: 8mph
Humidity: 59%   Direction: 360°N
Pressure: 30.01"   Gusts: NA
Location:  45.58°N, 75.42°W
Report Text: CYND 232000Z 36007KT 15SM OVC032 14/06 A3001 RMK SC8 SLP165
Loading
Personal Weather Stations






























Interactive Weather Map
Tropical Storm Tracking
New forecast layout! Learn more

10-Day Weather Forecast

Advertisements
Track Severe Weather on mobile